Time;durP1;ratioP1;P1;durP2;ratioP2;P2;SDS_P1;SDS_P2;PMS_P1;PMS_P2;Temp;Humidity;BMP_temperature;BMP_pressure;BME280_temperature;BME280_humidity;BME280_pressure;Samples;Min_cycle;Max_cycle;Signal;HPM_P1;HPM_P2
2021/04/15 00:00:37;;;;;;;7.80;2.20;;;;;;;;;;4938058;29;20043;-55
2021/04/15 00:03:03;;;;;;;8.95;2.38;;;;;;;;;;4936815;29;20432;-55
2021/04/15 00:05:30;;;;;;;8.13;2.25;;;;;;;;;;4936474;29;20031;-55
2021/04/15 00:07:55;;;;;;;9.32;2.25;;;;;;;;;;4937595;29;20429;-55
2021/04/15 00:10:24;;;;;;;9.77;2.58;;;;;;;;;;4937254;29;20028;-56
2021/04/15 00:12:49;;;;;;;11.40;2.20;;;;;;;;;;4937412;29;20066;-54
2021/04/15 00:15:15;;;;;;;7.57;2.77;;;;;;;;;;4936128;29;20170;-54
2021/04/15 00:17:40;;;;;;;9.00;2.50;;;;;;;;;;4937274;29;20067;-52
2021/04/15 00:20:07;;;;;;;11.03;2.60;;;;;;;;;;4937407;29;20044;-52
2021/04/15 00:22:33;;;;;;;5.97;2.40;;;;;;;;;;4936880;29;20024;-53
2021/04/15 00:24:59;;;;;;;6.00;2.10;;;;;;;;;;4937427;29;20276;-53
2021/04/15 00:27:24;;;;;;;9.13;2.40;;;;;;;;;;4935853;29;20034;-55
2021/04/15 00:29:49;;;;;;;6.53;2.20;;;;;;;;;;4937439;29;20043;-55
2021/04/15 00:32:15;;;;;;;9.37;2.40;;;;;;;;;;4937197;29;20036;-53
2021/04/15 00:34:40;;;;;;;5.83;1.97;;;;;;;;;;4936900;29;20168;-52
2021/04/15 00:37:05;;;;;;;10.03;2.60;;;;;;;;;;4920059;29;20027;-57
2021/04/15 00:39:31;;;;;;;7.50;2.47;;;;;;;;;;4935544;29;20055;-55
2021/04/15 00:41:56;;;;;;;10.80;2.60;;;;;;;;;;4936805;29;20028;-55
2021/04/15 00:44:21;;;;;;;6.47;2.60;;;;;;;;;;4919536;29;20115;-54
2021/04/15 00:46:50;;;;;;;11.37;2.90;;;;;;;;;;4936971;29;20035;-54
2021/04/15 00:49:26;;;;;;;14.38;2.33;;;;;;;;;;4936947;29;20091;-54
2021/04/15 00:51:54;;;;;;;7.97;2.70;;;;;;;;;;4935703;29;20119;-53
2021/04/15 00:54:55;;;;;;;4.60;2.30;;;;;;;;;;4935189;29;20540;-54
2021/04/15 00:57:21;;;;;;;5.25;2.35;;;;;;;;;;4915384;29;20032;-52
2021/04/15 00:59:47;;;;;;;;;;;;;;;;;;4932780;29;20043;-52
2021/04/15 01:02:13;;;;;;;7.10;2.60;;;;;;;;;;4936672;29;19962;-55
2021/04/15 01:04:39;;;;;;;8.48;2.22;;;;;;;;;;4936260;29;20054;-55
2021/04/15 01:07:05;;;;;;;7.93;2.20;;;;;;;;;;4919291;29;20079;-53
2021/04/15 01:09:31;;;;;;;7.97;2.58;;;;;;;;;;4936405;29;20150;-54
2021/04/15 01:12:02;;;;;;;8.45;2.30;;;;;;;;;;4935327;29;20478;-54
2021/04/15 01:14:57;;;;;;;6.82;2.30;;;;;;;;;;4935893;29;20365;-54
2021/04/15 01:17:22;;;;;;;6.45;2.63;;;;;;;;;;4901770;29;20044;-54
2021/04/15 01:20:06;;;;;;;4.97;1.80;;;;;;;;;;4935901;29;20015;-53
2021/04/15 01:22:53;;;;;;;7.07;2.45;;;;;;;;;;4936101;29;20507;-54
2021/04/15 01:25:24;;;;;;;13.68;3.20;;;;;;;;;;4936380;29;20070;-55
2021/04/15 01:28:05;;;;;;;9.30;2.50;;;;;;;;;;4935925;29;20039;-51
2021/04/15 01:30:37;;;;;;;10.40;3.33;;;;;;;;;;4935963;29;20089;-56
2021/04/15 01:33:09;;;;;;;10.05;2.78;;;;;;;;;;4936067;29;20495;-56
2021/04/15 01:35:52;;;;;;;8.20;2.38;;;;;;;;;;4935777;29;20032;-56
2021/04/15 01:38:24;;;;;;;9.15;2.83;;;;;;;;;;4934753;29;20032;-53
2021/04/15 01:40:59;;;;;;;8.98;2.75;;;;;;;;;;4935198;29;20039;-54
2021/04/15 01:43:30;;;;;;;7.30;2.78;;;;;;;;;;4935795;29;20070;-53
2021/04/15 01:45:57;;;;;;;7.80;2.13;;;;;;;;;;4935715;29;20024;-54
2021/04/15 01:48:27;;;;;;;6.28;1.95;;;;;;;;;;4935939;29;20036;-52
2021/04/15 01:50:55;;;;;;;4.55;2.72;;;;;;;;;;4934243;29;20468;-54
2021/04/15 01:53:30;;;;;;;5.85;1.85;;;;;;;;;;4934885;29;20397;-55
2021/04/15 01:55:59;;;;;;;6.00;1.83;;;;;;;;;;4935700;29;20058;-54
2021/04/15 01:58:35;;;;;;;7.00;1.85;;;;;;;;;;4935301;29;20059;-55
2021/04/15 02:01:03;;;;;;;3.47;1.20;;;;;;;;;;4935678;29;20122;-52
2021/04/15 02:03:31;;;;;;;3.97;1.55;;;;;;;;;;4935739;29;20040;-57
2021/04/15 02:05:59;;;;;;;5.38;1.20;;;;;;;;;;4935779;29;20032;-54
2021/04/15 02:08:33;;;;;;;3.33;1.40;;;;;;;;;;4934184;29;20098;-56
2021/04/15 02:11:03;;;;;;;1.83;1.15;;;;;;;;;;4934185;29;20040;-54
2021/04/15 02:13:31;;;;;;;4.40;1.40;;;;;;;;;;4917967;29;20106;-55
2021/04/15 02:16:02;;;;;;;3.78;0.70;;;;;;;;;;4934102;29;20024;-53
2021/04/15 02:18:31;;;;;;;1.73;0.98;;;;;;;;;;4935560;29;20036;-55
2021/04/15 02:20:59;;;;;;;3.50;0.88;;;;;;;;;;4935283;29;20432;-55
2021/04/15 02:23:27;;;;;;;3.15;0.80;;;;;;;;;;4935299;29;20114;-55
2021/04/15 02:25:59;;;;;;;1.20;0.70;;;;;;;;;;4933624;29;20529;-56
2021/04/15 02:28:54;;;;;;;1.02;0.57;;;;;;;;;;4935042;29;20028;-57
2021/04/15 02:31:24;;;;;;;3.05;0.77;;;;;;;;;;4930375;29;20551;-55
2021/04/15 02:33:52;;;;;;;2.63;0.90;;;;;;;;;;4934868;29;20055;-55
2021/04/15 02:36:19;;;;;;;1.02;0.70;;;;;;;;;;4933775;29;20138;-51
2021/04/15 02:38:44;;;;;;;0.57;0.40;;;;;;;;;;4934820;29;20059;-56
2021/04/15 02:41:11;;;;;;;0.57;0.50;;;;;;;;;;4934811;29;20476;-55
2021/04/15 02:43:44;;;;;;;1.35;0.52;;;;;;;;;;4934995;29;20122;-55
2021/04/15 02:46:13;;;;;;;0.63;0.40;;;;;;;;;;4933672;29;20024;-54
2021/04/15 02:48:39;;;;;;;1.38;0.43;;;;;;;;;;4934744;29;20048;-54
2021/04/15 02:51:04;;;;;;;;;;;;;;;;;;4935442;29;20142;-53
2021/04/15 02:53:37;;;;;;;0.90;0.80;;;;;;;;;;4937660;29;20083;-55
2021/04/15 02:56:16;;;;;;;2.13;0.40;;;;;;;;;;4938850;29;20031;-54
2021/04/15 02:58:44;;;;;;;0.40;0.40;;;;;;;;;;4938347;29;20056;-56
2021/04/15 03:01:12;;;;;;;1.23;0.57;;;;;;;;;;4938847;29;20097;-55
2021/04/15 03:03:38;;;;;;;1.30;0.63;;;;;;;;;;4938369;29;20035;-55
2021/04/15 03:06:10;;;;;;;2.92;0.77;;;;;;;;;;4938869;29;20042;-54
2021/04/15 03:08:36;;;;;;;0.77;0.40;;;;;;;;;;4938764;29;20032;-51
2021/04/15 03:11:04;;;;;;;1.13;0.47;;;;;;;;;;4937359;29;20039;-56
2021/04/15 03:13:30;;;;;;;1.35;0.70;;;;;;;;;;4938648;29;20032;-56
2021/04/15 03:15:56;;;;;;;;;;;;;;;;;;4938762;29;20548;-54
2021/04/15 03:18:23;;;;;;;1.63;0.70;;;;;;;;;;4938703;29;19990;-55
2021/04/15 03:21:00;;;;;;;3.55;1.20;;;;;;;;;;4938343;29;20082;-56
2021/04/15 03:23:25;;;;;;;4.45;1.65;;;;;;;;;;4938581;29;20059;-53
2021/04/15 03:25:52;;;;;;;3.97;1.47;;;;;;;;;;4938172;29;20067;-56
2021/04/15 03:28:23;;;;;;;5.53;2.85;;;;;;;;;;4938224;29;20024;-58
2021/04/15 03:30:55;;;;;;;4.40;1.90;;;;;;;;;;4937912;29;20701;-55
2021/04/15 03:33:23;;;;;;;4.85;1.80;;;;;;;;;;4921429;29;20079;-55
2021/04/15 03:35:58;;;;;;;5.95;1.63;;;;;;;;;;4936918;29;20028;-54
2021/04/15 03:38:26;;;;;;;3.55;1.35;;;;;;;;;;4921392;29;20575;-55
2021/04/15 03:40:54;;;;;;;3.95;1.48;;;;;;;;;;4936997;29;20040;-56
2021/04/15 03:43:24;;;;;;;4.13;1.75;;;;;;;;;;4938220;29;20035;-53
2021/04/15 03:46:04;;;;;;;2.72;0.80;;;;;;;;;;4937209;29;20043;-53
2021/04/15 03:48:32;;;;;;;1.95;1.00;;;;;;;;;;4937125;29;20043;-55
2021/04/15 03:51:00;;;;;;;2.88;0.88;;;;;;;;;;4937631;29;20040;-55
2021/04/15 03:53:32;;;;;;;7.32;2.50;;;;;;;;;;4937869;29;20404;-55
2021/04/15 03:55:59;;;;;;;1.90;1.10;;;;;;;;;;4937614;29;20091;-55
2021/04/15 03:58:38;;;;;;;2.78;1.00;;;;;;;;;;4937662;29;20127;-54
2021/04/15 04:01:06;;;;;;;2.80;1.10;;;;;;;;;;4937449;29;20044;-54
2021/04/15 04:03:32;;;;;;;2.17;1.20;;;;;;;;;;4937615;29;20028;-54
2021/04/15 04:06:03;;;;;;;2.60;1.08;;;;;;;;;;4937429;29;20020;-56
2021/04/15 04:08:35;;;;;;;3.35;1.10;;;;;;;;;;4937749;29;20066;-56
2021/04/15 04:11:00;;;;;;;3.78;1.35;;;;;;;;;;4937436;29;20032;-53
2021/04/15 04:13:28;;;;;;;6.83;2.30;;;;;;;;;;4937326;29;20028;-54
2021/04/15 04:15:57;;;;;;;3.17;1.50;;;;;;;;;;4937107;29;20090;-56
2021/04/15 04:18:25;;;;;;;4.82;1.30;;;;;;;;;;4936045;29;20111;-55
2021/04/15 04:20:54;;;;;;;2.83;2.03;;;;;;;;;;4935568;29;20035;-54
2021/04/15 04:23:35;;;;;;;4.10;1.85;;;;;;;;;;4937255;29;20464;-54
2021/04/15 04:26:15;;;;;;;5.50;2.20;;;;;;;;;;4937001;29;20028;-56
2021/04/15 04:28:42;;;;;;;4.78;2.35;;;;;;;;;;4935780;29;20134;-54
2021/04/15 04:31:07;;;;;;;1.85;1.13;;;;;;;;;;4936802;29;20051;-56
2021/04/15 04:33:38;;;;;;;3.87;1.20;;;;;;;;;;4937192;29;20362;-55
2021/04/15 04:36:04;;;;;;;7.25;3.22;;;;;;;;;;4936693;29;20038;-53
2021/04/15 04:38:30;;;;;;;2.67;1.33;;;;;;;;;;4937315;29;20035;-56
2021/04/15 04:41:03;;;;;;;6.75;2.75;;;;;;;;;;4936566;29;20404;-56
2021/04/15 04:43:48;;;;;;;3.85;1.55;;;;;;;;;;4936709;29;20452;-56
2021/04/15 04:46:32;;;;;;;4.00;1.30;;;;;;;;;;4937136;29;20032;-55
2021/04/15 04:49:00;;;;;;;4.20;1.52;;;;;;;;;;4936518;29;20083;-55
2021/04/15 04:51:31;;;;;;;3.20;1.15;;;;;;;;;;4936787;29;20106;-58
2021/04/15 04:54:03;;;;;;;7.28;2.35;;;;;;;;;;4936655;29;20036;-55
2021/04/15 04:56:34;;;;;;;4.35;1.60;;;;;;;;;;4937039;29;20032;-54
2021/04/15 04:59:05;;;;;;;3.80;1.55;;;;;;;;;;4936619;29;20055;-55
2021/04/15 05:01:30;;;;;;;3.33;1.35;;;;;;;;;;4937056;29;20046;-55
2021/04/15 05:03:57;;;;;;;3.43;1.80;;;;;;;;;;4937809;29;20102;-52
2021/04/15 05:06:23;;;;;;;6.15;1.70;;;;;;;;;;4921302;29;20031;-51
2021/04/15 05:08:54;;;;;;;4.20;1.70;;;;;;;;;;4936577;29;20103;-54
2021/04/15 05:11:20;;;;;;;4.38;1.60;;;;;;;;;;4919504;29;20051;-54
2021/04/15 05:13:46;;;;;;;2.30;1.35;;;;;;;;;;4936940;29;20106;-51
2021/04/15 05:16:12;;;;;;;4.05;1.50;;;;;;;;;;4937022;29;20036;-52
2021/04/15 05:18:38;;;;;;;2.92;1.58;;;;;;;;;;4937276;29;20043;-55
2021/04/15 05:21:10;;;;;;;7.13;1.98;;;;;;;;;;4919754;29;20039;-52
2021/04/15 05:23:42;;;;;;;3.53;2.10;;;;;;;;;;4936855;29;20035;-52
2021/04/15 05:26:10;;;;;;;6.13;2.25;;;;;;;;;;4934755;29;20333;-51
2021/04/15 05:28:36;;;;;;;6.72;2.17;;;;;;;;;;4934639;29;20105;-54
2021/04/15 05:31:06;;;;;;;5.72;2.40;;;;;;;;;;4934559;29;20118;-54
2021/04/15 05:33:32;;;;;;;6.03;2.42;;;;;;;;;;4935994;29;20036;-54
2021/04/15 05:36:27;;;;;;;5.10;2.20;;;;;;;;;;4933826;29;20038;-55
2021/04/15 05:38:53;;;;;;;4.20;2.15;;;;;;;;;;4931020;29;20039;-55
2021/04/15 05:41:30;;;;;;;3.80;2.50;;;;;;;;;;4918492;29;20040;-54
2021/04/15 05:43:57;;;;;;;5.70;2.50;;;;;;;;;;4935378;29;20034;-55
2021/04/15 05:46:25;;;;;;;19.40;15.07;;;;;;;;;;4935994;28;20040;-57
2021/04/15 05:48:55;;;;;;;12.80;7.03;;;;;;;;;;4935364;29;20023;-55
2021/04/15 05:51:23;;;;;;;7.05;3.75;;;;;;;;;;4933919;29;20035;-55
2021/04/15 05:53:53;;;;;;;4.80;2.03;;;;;;;;;;4935504;29;20031;-55
2021/04/15 05:56:20;;;;;;;12.60;2.75;;;;;;;;;;4935244;29;20032;-55
2021/04/15 05:58:45;;;;;;;3.72;2.15;;;;;;;;;;4933745;29;20440;-55
2021/04/15 06:01:14;;;;;;;4.17;2.13;;;;;;;;;;4935340;29;20127;-56
2021/04/15 06:03:59;;;;;;;5.50;2.20;;;;;;;;;;4934200;29;20068;-58
2021/04/15 06:06:27;;;;;;;5.70;2.40;;;;;;;;;;4934801;29;20040;-55
2021/04/15 06:08:53;;;;;;;5.93;2.20;;;;;;;;;;4933728;29;20027;-54
2021/04/15 06:11:21;;;;;;;10.80;2.47;;;;;;;;;;4934808;29;20036;-55
2021/04/15 06:13:48;;;;;;;4.88;2.40;;;;;;;;;;4935065;28;20359;-53
2021/04/15 06:16:18;;;;;;;5.13;2.63;;;;;;;;;;4933464;29;20114;-53
2021/04/15 06:18:51;;;;;;;8.13;3.05;;;;;;;;;;4935152;28;20036;-56
2021/04/15 06:21:19;;;;;;;7.45;3.42;;;;;;;;;;4934796;29;20039;-56
2021/04/15 06:23:47;;;;;;;5.03;2.30;;;;;;;;;;4965377;28;20463;-55
2021/04/15 06:26:19;;;;;;;6.15;2.70;;;;;;;;;;4931933;28;20039;-57
2021/04/15 06:28:45;;;;;;;7.28;2.90;;;;;;;;;;4935496;29;20038;-57
2021/04/15 06:31:22;;;;;;;7.72;3.70;;;;;;;;;;4935036;29;20039;-55
2021/04/15 06:33:48;;;;;;;8.23;3.50;;;;;;;;;;4934177;29;20457;-57
2021/04/15 06:36:29;;;;;;;7.97;3.35;;;;;;;;;;4934890;29;20043;-55
2021/04/15 06:39:10;;;;;;;11.07;4.18;;;;;;;;;;4934023;29;20185;-55
2021/04/15 06:41:35;;;;;;;8.55;3.38;;;;;;;;;;4931981;29;20506;-55
2021/04/15 06:44:19;;;;;;;10.60;3.40;;;;;;;;;;4934587;29;20032;-56
2021/04/15 06:46:53;;;;;;;7.57;3.10;;;;;;;;;;4933256;29;20046;-55
2021/04/15 06:49:28;;;;;;;5.30;2.78;;;;;;;;;;4930335;29;20050;-55
2021/04/15 06:52:00;;;;;;;7.90;3.30;;;;;;;;;;4920248;29;20036;-53
2021/04/15 06:54:28;;;;;;;7.85;2.70;;;;;;;;;;4915931;29;20047;-54
2021/04/15 06:57:12;;;;;;;4.95;2.80;;;;;;;;;;4915009;29;20036;-57
2021/04/15 06:59:37;;;;;;;6.35;2.88;;;;;;;;;;4914414;29;20052;-53
2021/04/15 07:02:21;;;;;;;6.97;3.00;;;;;;;;;;4928090;29;20040;-57
2021/04/15 07:04:51;;;;;;;10.93;4.47;;;;;;;;;;4930312;29;20032;-54
2021/04/15 07:07:43;;;;;;;6.47;3.30;;;;;;;;;;4931288;29;20122;-55
2021/04/15 07:10:11;;;;;;;7.90;2.55;;;;;;;;;;4932626;29;20082;-55
2021/04/15 07:12:37;;;;;;;7.85;2.70;;;;;;;;;;4934576;29;20027;-54
2021/04/15 07:15:08;;;;;;;5.30;2.13;;;;;;;;;;4934052;29;20024;-54
2021/04/15 07:17:44;;;;;;;9.65;2.33;;;;;;;;;;4934094;29;20035;-55
2021/04/15 07:20:15;;;;;;;9.52;2.15;;;;;;;;;;4932100;29;20538;-53
2021/04/15 07:23:10;;;;;;;6.50;2.63;;;;;;;;;;4934205;29;20032;-56
2021/04/15 07:25:48;;;;;;;4.28;1.95;;;;;;;;;;4929423;29;20130;-56
2021/04/15 07:28:13;;;;;;;3.25;1.80;;;;;;;;;;4934360;29;20112;-55
2021/04/15 07:30:56;;;;;;;7.80;1.80;;;;;;;;;;4934088;29;20047;-56
2021/04/15 07:33:24;;;;;;;6.10;2.10;;;;;;;;;;4932257;29;20493;-55
2021/04/15 07:35:59;;;;;;;7.78;2.67;;;;;;;;;;4932667;29;20035;-55
2021/04/15 07:38:30;;;;;;;10.25;2.65;;;;;;;;;;4915623;29;20036;-55
2021/04/15 07:41:01;;;;;;;5.50;1.95;;;;;;;;;;4936882;29;20039;-56
2021/04/15 07:43:30;;;;;;;4.45;2.00;;;;;;;;;;4937576;29;20111;-55
2021/04/15 07:46:07;;;;;;;6.50;2.65;;;;;;;;;;4937588;29;20036;-55
2021/04/15 07:48:42;;;;;;;4.25;2.28;;;;;;;;;;4936714;29;20078;-55
2021/04/15 07:51:10;;;;;;;6.43;2.35;;;;;;;;;;4936731;29;20042;-55
2021/04/15 07:53:56;;;;;;;6.45;2.00;;;;;;;;;;4919583;29;20048;-55
2021/04/15 07:56:40;;;;;;;10.15;2.90;;;;;;;;;;4957527;28;20036;-55
2021/04/15 07:59:24;;;;;;;10.07;2.65;;;;;;;;;;4934975;29;20377;-52
2021/04/15 08:01:50;;;;;;;5.28;2.30;;;;;;;;;;4967408;28;20036;-55
2021/04/15 08:04:30;;;;;;;11.63;3.07;;;;;;;;;;4936684;28;20428;-54
2021/04/15 08:07:16;;;;;;;9.40;2.10;;;;;;;;;;4920093;29;20028;-53
2021/04/15 08:09:50;;;;;;;6.60;2.55;;;;;;;;;;4925977;29;20069;-56
2021/04/15 08:12:22;;;;;;;5.32;2.47;;;;;;;;;;4919665;29;20034;-54
2021/04/15 08:15:07;;;;;;;8.32;2.95;;;;;;;;;;4935749;29;20032;-55
2021/04/15 08:17:51;;;;;;;4.22;2.40;;;;;;;;;;4935462;29;20502;-54
2021/04/15 08:20:29;;;;;;;5.30;2.30;;;;;;;;;;4936419;29;20082;-53
2021/04/15 08:23:10;;;;;;;9.32;2.20;;;;;;;;;;4935566;29;20554;-55
2021/04/15 08:25:38;;;;;;;12.55;2.03;;;;;;;;;;4936905;29;20420;-55
2021/04/15 08:28:13;;;;;;;8.60;1.98;;;;;;;;;;4936623;29;20039;-55
2021/04/15 08:31:02;;;;;;;8.13;1.88;;;;;;;;;;4936765;29;20032;-54
2021/04/15 08:33:32;;;;;;;10.00;2.33;;;;;;;;;;4932189;29;20024;-53
2021/04/15 08:36:02;;;;;;;4.95;1.30;;;;;;;;;;4936830;29;20032;-51
2021/04/15 08:38:30;;;;;;;4.68;1.30;;;;;;;;;;4936735;29;20044;-52
2021/04/15 08:41:15;;;;;;;6.25;1.40;;;;;;;;;;4967371;28;20175;-52
2021/04/15 08:44:00;;;;;;;5.05;1.42;;;;;;;;;;4936786;29;20050;-57
2021/04/15 08:46:41;;;;;;;3.80;1.70;;;;;;;;;;4936365;29;20040;-54
2021/04/15 08:49:25;;;;;;;5.97;1.90;;;;;;;;;;4934200;29;20091;-60
2021/04/15 08:52:09;;;;;;;8.23;2.17;;;;;;;;;;4936432;29;20032;-55
2021/04/15 08:54:38;;;;;;;5.47;2.40;;;;;;;;;;4966425;28;20044;-56
2021/04/15 08:57:11;;;;;;;5.70;1.73;;;;;;;;;;4934278;29;20039;-53
2021/04/15 08:59:48;;;;;;;8.27;2.30;;;;;;;;;;4935733;29;20132;-55
2021/04/15 09:02:14;;;;;;;6.07;1.98;;;;;;;;;;4934273;29;20040;-55
2021/04/15 09:04:39;;;;;;;8.77;2.60;;;;;;;;;;4934838;29;20426;-52
2021/04/15 09:07:15;;;;;;;3.87;1.63;;;;;;;;;;4966966;28;20035;-53
2021/04/15 09:09:52;;;;;;;10.05;2.33;;;;;;;;;;4936346;29;20039;-55
2021/04/15 09:12:18;;;;;;;;;;;;;;;;;;4966927;28;20032;-55
2021/04/15 09:14:43;;;;;;;5.83;2.07;;;;;;;;;;4934415;29;19918;-51
2021/04/15 09:17:11;;;;;;;5.20;2.10;;;;;;;;;;4965742;28;20424;-55
2021/04/15 09:19:50;;;;;;;4.45;1.80;;;;;;;;;;4935042;29;20027;-56
2021/04/15 09:22:19;;;;;;;6.10;2.20;;;;;;;;;;4934364;29;20052;-56
2021/04/15 09:24:58;;;;;;;6.75;2.83;;;;;;;;;;4936101;29;20119;-55
2021/04/15 09:27:26;;;;;;;9.07;2.20;;;;;;;;;;4935205;28;20040;-54
2021/04/15 09:30:00;;;;;;;9.68;2.42;;;;;;;;;;4966552;28;20035;-55
2021/04/15 09:32:26;;;;;;;5.57;2.00;;;;;;;;;;4935418;29;20506;-55
2021/04/15 09:35:03;;;;;;;7.43;2.40;;;;;;;;;;4935768;29;20131;-55
2021/04/15 09:37:40;;;;;;;6.95;2.45;;;;;;;;;;4935295;29;20059;-54
2021/04/15 09:40:11;;;;;;;4.45;1.85;;;;;;;;;;4935958;29;20075;-55
2021/04/15 09:42:39;;;;;;;7.03;2.10;;;;;;;;;;4935502;29;20036;-54
2021/04/15 09:45:13;;;;;;;4.68;1.90;;;;;;;;;;4933826;29;20038;-54
2021/04/15 09:47:39;;;;;;;11.65;2.30;;;;;;;;;;4934947;29;20118;-57
2021/04/15 09:50:07;;;;;;;7.63;2.53;;;;;;;;;;4934121;29;20458;-55
2021/04/15 09:52:45;;;;;;;4.03;1.90;;;;;;;;;;4965827;28;20035;-52
2021/04/15 09:55:20;;;;;;;4.75;1.75;;;;;;;;;;4933788;29;20381;-55
2021/04/15 09:57:54;;;;;;;5.65;1.83;;;;;;;;;;4935591;29;20046;-52
2021/04/15 10:00:28;;;;;;;4.15;1.80;;;;;;;;;;4965089;28;20562;-54
2021/04/15 10:03:05;;;;;;;5.75;2.63;;;;;;;;;;4934491;29;20032;-54
2021/04/15 10:05:40;;;;;;;5.18;2.00;;;;;;;;;;4934897;29;20055;-55
2021/04/15 10:08:24;;;;;;;4.80;1.95;;;;;;;;;;4918028;29;20099;-55
2021/04/15 10:10:55;;;;;;;3.40;1.40;;;;;;;;;;4933582;29;20036;-52
2021/04/15 10:13:20;;;;;;;5.97;1.90;;;;;;;;;;4958720;28;20341;-56
2021/04/15 10:16:06;;;;;;;6.20;1.60;;;;;;;;;;4915058;29;20283;-55
2021/04/15 10:18:32;;;;;;;4.80;1.90;;;;;;;;;;4914799;29;20028;-53
2021/04/15 10:21:00;;;;;;;6.77;1.70;;;;;;;;;;4923936;29;20293;-54
2021/04/15 10:23:34;;;;;;;3.73;1.40;;;;;;;;;;4935181;29;20400;-56
2021/04/15 10:26:01;;;;;;;5.70;1.40;;;;;;;;;;4933398;29;20269;-54
2021/04/15 10:28:59;;;;;;;3.27;1.37;;;;;;;;;;4932984;29;20270;-55
2021/04/15 10:31:33;;;;;;;4.13;1.67;;;;;;;;;;4912145;29;20289;-53
2021/04/15 10:34:17;;;;;;;3.60;1.60;;;;;;;;;;4935029;29;20083;-52
2021/04/15 10:36:46;;;;;;;3.53;1.10;;;;;;;;;;4917518;29;20793;-55
2021/04/15 10:39:30;;;;;;;2.57;1.30;;;;;;;;;;4934597;29;20270;-55
2021/04/15 10:41:55;;;;;;;5.10;1.30;;;;;;;;;;4934752;29;20347;-55
2021/04/15 10:44:39;;;;;;;2.97;1.70;;;;;;;;;;4933336;29;20111;-55
2021/04/15 10:47:10;;;;;;;1.97;0.90;;;;;;;;;;4934318;29;20118;-55
2021/04/15 10:49:41;;;;;;;5.13;0.90;;;;;;;;;;4933109;29;20035;-55
2021/04/15 10:52:22;;;;;;;3.07;1.10;;;;;;;;;;4933695;29;20040;-55
2021/04/15 10:54:47;;;;;;;5.60;1.87;;;;;;;;;;4932629;29;20032;-55
2021/04/15 10:57:15;;;;;;;5.47;1.80;;;;;;;;;;4933380;29;20348;-55
2021/04/15 10:59:42;;;;;;;3.13;1.00;;;;;;;;;;4933040;29;20052;-56
2021/04/15 11:02:22;;;;;;;3.47;0.93;;;;;;;;;;4934554;29;20342;-55
2021/04/15 11:04:48;;;;;;;2.37;0.80;;;;;;;;;;4918144;29;20036;-54
2021/04/15 11:07:17;;;;;;;1.60;0.70;;;;;;;;;;4933923;29;20043;-56
2021/04/15 11:09:47;;;;;;;3.43;0.90;;;;;;;;;;4935961;29;20032;-53
2021/04/15 11:12:15;;;;;;;2.83;0.90;;;;;;;;;;4935782;29;20067;-56
2021/04/15 11:14:44;;;;;;;1.40;0.90;;;;;;;;;;4921336;29;20527;-56
2021/04/15 11:17:21;;;;;;;4.40;1.73;;;;;;;;;;4938124;29;20162;-55
2021/04/15 11:19:47;;;;;;;4.03;1.10;;;;;;;;;;4937342;29;20023;-54
2021/04/15 11:22:20;;;;;;;3.22;0.95;;;;;;;;;;4940241;29;20183;-54
2021/04/15 11:24:46;;;;;;;3.30;0.80;;;;;;;;;;4954908;29;20078;-55
2021/04/15 11:27:12;;;;;;;2.25;0.77;;;;;;;;;;4938728;29;20118;-55
2021/04/15 11:29:40;;;;;;;2.03;0.70;;;;;;;;;;4937698;29;20040;-56
2021/04/15 11:32:26;;;;;;;3.60;1.40;;;;;;;;;;4937995;29;20131;-55
2021/04/15 11:35:02;;;;;;;2.00;0.90;;;;;;;;;;4934059;29;20047;-56
2021/04/15 11:37:27;;;;;;;2.60;0.75;;;;;;;;;;4938253;29;20031;-55
2021/04/15 11:40:12;;;;;;;6.68;0.90;;;;;;;;;;4937648;29;20046;-53
2021/04/15 11:42:38;;;;;;;2.97;1.03;;;;;;;;;;4937580;29;20050;-56
2021/04/15 11:45:04;;;;;;;4.03;1.10;;;;;;;;;;4937047;29;20035;-55
2021/04/15 11:47:31;;;;;;;4.43;1.20;;;;;;;;;;4937627;29;20038;-56
2021/04/15 11:50:25;;;;;;;3.10;1.30;;;;;;;;;;4936644;29;20035;-56
2021/04/15 11:52:53;;;;;;;1.77;0.80;;;;;;;;;;4932654;29;20134;-53
2021/04/15 11:55:25;;;;;;;1.87;1.00;;;;;;;;;;4936176;29;20036;-54
2021/04/15 11:57:56;;;;;;;2.47;0.80;;;;;;;;;;4936383;29;20064;-54
2021/04/15 12:00:32;;;;;;;6.63;1.00;;;;;;;;;;4936190;29;20059;-54
2021/04/15 12:02:58;;;;;;;2.80;0.85;;;;;;;;;;4937636;29;20035;-56
2021/04/15 12:05:29;;;;;;;1.80;1.00;;;;;;;;;;4937600;29;20031;-52
2021/04/15 12:07:57;;;;;;;2.57;1.00;;;;;;;;;;4933815;29;20031;-56
2021/04/15 12:10:25;;;;;;;2.67;1.20;;;;;;;;;;4937758;29;20138;-54
2021/04/15 12:12:53;;;;;;;1.53;0.80;;;;;;;;;;4937296;29;20055;-56
2021/04/15 12:15:22;;;;;;;2.07;0.80;;;;;;;;;;4937125;29;20479;-53
2021/04/15 12:17:53;;;;;;;1.83;0.70;;;;;;;;;;4937134;29;20115;-57
2021/04/15 12:20:26;;;;;;;8.00;1.30;;;;;;;;;;4937232;29;20091;-57
2021/04/15 12:22:51;;;;;;;1.50;1.00;;;;;;;;;;4936097;29;20036;-56
2021/04/15 12:25:22;;;;;;;1.05;0.70;;;;;;;;;;4936888;29;20522;-56
2021/04/15 12:27:49;;;;;;;2.43;0.93;;;;;;;;;;4935945;29;20035;-56
2021/04/15 12:30:18;;;;;;;2.83;0.97;;;;;;;;;;4936833;29;20059;-57
2021/04/15 12:32:44;;;;;;;1.43;0.90;;;;;;;;;;4932511;29;20035;-56
2021/04/15 12:35:09;;;;;;;;;;;;;;;;;;4928882;29;20036;-55
2021/04/15 12:37:34;;;;;;;3.70;1.00;;;;;;;;;;4922876;29;20018;-56
2021/04/15 12:40:03;;;;;;;3.17;0.75;;;;;;;;;;4934083;29;20495;-57
2021/04/15 12:42:30;;;;;;;1.85;0.80;;;;;;;;;;4936441;29;20043;-56
2021/04/15 12:44:58;;;;;;;3.75;0.98;;;;;;;;;;4934595;29;20460;-56
2021/04/15 12:47:24;;;;;;;1.30;0.80;;;;;;;;;;4935374;29;20027;-55
2021/04/15 12:49:50;;;;;;;3.10;1.00;;;;;;;;;;4936542;29;20032;-53
2021/04/15 12:52:16;;;;;;;1.73;0.80;;;;;;;;;;4919764;29;20035;-56
2021/04/15 12:54:41;;;;;;;;;;;;;;;;;;4935731;29;20027;-56
2021/04/15 12:57:08;;;;;;;2.13;1.10;;;;;;;;;;4936373;29;19911;-54
2021/04/15 12:59:36;;;;;;;4.93;1.30;;;;;;;;;;4936417;29;20080;-55
2021/04/15 13:02:03;;;;;;;3.30;1.10;;;;;;;;;;4935694;29;20051;-57
2021/04/15 13:04:31;;;;;;;3.87;1.13;;;;;;;;;;4936551;29;20035;-54
2021/04/15 13:07:00;;;;;;;2.20;1.30;;;;;;;;;;4936348;29;20034;-56
2021/04/15 13:09:26;;;;;;;5.60;1.30;;;;;;;;;;4936165;28;20075;-56
2021/04/15 13:11:51;;;;;;;4.60;1.00;;;;;;;;;;4935516;29;20423;-56
2021/04/15 13:14:34;;;;;;;6.00;1.35;;;;;;;;;;4936409;29;20058;-55
2021/04/15 13:17:00;;;;;;;2.37;1.50;;;;;;;;;;4935606;29;20067;-53
2021/04/15 13:19:25;;;;;;;1.85;1.17;;;;;;;;;;4934266;29;20491;-55
2021/04/15 13:22:03;;;;;;;4.40;1.60;;;;;;;;;;4935880;29;20035;-55
2021/04/15 13:24:46;;;;;;;4.83;1.40;;;;;;;;;;4934575;29;20032;-55
2021/04/15 13:27:30;;;;;;;3.53;1.53;;;;;;;;;;4935769;29;20039;-56
2021/04/15 13:30:05;;;;;;;4.40;1.33;;;;;;;;;;4934456;29;20036;-56
2021/04/15 13:32:50;;;;;;;2.67;1.10;;;;;;;;;;4935843;29;20114;-56
2021/04/15 13:35:18;;;;;;;3.13;1.40;;;;;;;;;;4934989;29;20036;-56
2021/04/15 13:37:44;;;;;;;5.27;1.77;;;;;;;;;;4935547;29;20016;-56
2021/04/15 13:40:09;;;;;;;;;;;;;;;;;;4918748;29;20119;-55
2021/04/15 13:42:35;;;;;;;2.13;1.30;;;;;;;;;;4935333;29;20069;-56
2021/04/15 13:45:06;;;;;;;2.65;1.27;;;;;;;;;;4934665;29;20067;-56
2021/04/15 13:47:40;;;;;;;2.23;1.20;;;;;;;;;;4935632;29;20023;-56
2021/04/15 13:50:05;;;;;;;4.43;1.20;;;;;;;;;;4934627;29;20042;-56
2021/04/15 13:52:34;;;;;;;4.30;1.88;;;;;;;;;;4928135;29;20052;-55
2021/04/15 13:55:19;;;;;;;5.77;1.80;;;;;;;;;;4916304;29;20032;-56
2021/04/15 13:57:45;;;;;;;3.60;1.40;;;;;;;;;;4916523;29;20038;-56
2021/04/15 14:00:12;;;;;;;2.67;1.50;;;;;;;;;;4915073;29;20048;-55
2021/04/15 14:02:41;;;;;;;2.80;1.40;;;;;;;;;;4916685;29;20040;-55
2021/04/15 14:05:27;;;;;;;2.70;1.50;;;;;;;;;;4916520;29;20043;-55
2021/04/15 14:07:54;;;;;;;5.50;1.40;;;;;;;;;;4916132;29;20330;-55
2021/04/15 14:10:37;;;;;;;8.03;2.50;;;;;;;;;;4931009;29;20047;-56
2021/04/15 14:13:16;;;;;;;4.03;1.83;;;;;;;;;;4915636;29;20552;-56
2021/04/15 14:15:47;;;;;;;4.70;1.63;;;;;;;;;;4931629;29;20137;-56
2021/04/15 14:18:32;;;;;;;3.87;1.60;;;;;;;;;;4916573;29;20036;-56
2021/04/15 14:21:09;;;;;;;3.57;1.77;;;;;;;;;;4919479;29;20032;-56
2021/04/15 14:23:34;;;;;;;;;;;;;;;;;;4935010;29;20059;-57
2021/04/15 14:26:03;;;;;;;5.07;2.03;;;;;;;;;;4934826;29;19911;-56
2021/04/15 14:28:29;;;;;;;1.90;1.60;;;;;;;;;;4915338;29;20043;-57
2021/04/15 14:30:55;;;;;;;3.93;1.23;;;;;;;;;;4934242;29;20078;-56
2021/04/15 14:33:20;;;;;;;;;;;;;;;;;;4934988;29;20115;-57
2021/04/15 14:35:46;;;;;;;3.07;1.67;;;;;;;;;;4934642;29;20252;-57
2021/04/15 14:38:14;;;;;;;2.70;1.50;;;;;;;;;;4932903;29;20171;-55
2021/04/15 14:40:43;;;;;;;3.13;1.37;;;;;;;;;;4935033;29;20130;-55
2021/04/15 14:43:30;;;;;;;5.47;2.13;;;;;;;;;;4934198;29;20036;-55
2021/04/15 14:45:56;;;;;;;4.80;1.98;;;;;;;;;;4932651;29;20050;-56
2021/04/15 14:48:21;;;;;;;;;;;;;;;;;;4935216;29;20387;-55
2021/04/15 14:50:47;;;;;;;4.50;2.13;;;;;;;;;;4935001;29;20001;-56
2021/04/15 14:53:17;;;;;;;5.53;2.00;;;;;;;;;;4932959;29;20040;-56
2021/04/15 14:55:43;;;;;;;4.77;2.27;;;;;;;;;;4933408;29;20042;-55
2021/04/15 14:58:12;;;;;;;3.07;1.50;;;;;;;;;;4933067;29;20086;-54
2021/04/15 15:00:57;;;;;;;3.20;1.40;;;;;;;;;;4934620;29;20095;-55
2021/04/15 15:03:24;;;;;;;6.47;3.07;;;;;;;;;;4934820;29;20067;-53
2021/04/15 15:05:50;;;;;;;5.37;2.33;;;;;;;;;;4933324;29;20429;-54
2021/04/15 15:08:16;;;;;;;3.88;2.00;;;;;;;;;;4932042;29;20127;-54
2021/04/15 15:10:41;;;;;;;;;;;;;;;;;;4933552;29;20444;-54